Time;durP1;ratioP1;P1;durP2;ratioP2;P2;SDS_P1;SDS_P2;PMS_P1;PMS_P2;Temp;Humidity;BMP_temperature;BMP_pressure;BME280_temperature;BME280_humidity;BME280_pressure;Samples;Min_cycle;Max_cycle;Signal;HPM_P1;HPM_P2
2021/12/26 00:01:04;;;;;;;24.27;11.83;;;;;;;;;;5094908;28;20966;-71
2021/12/26 00:03:32;;;;;;;17.53;10.70;;;;;;;;;;5096076;28;20508;-70
2021/12/26 00:06:01;;;;;;;20.47;11.27;;;;;;;;;;5095973;28;20931;-70
2021/12/26 00:08:27;;;;;;;19.10;10.63;;;;;;;;;;5095882;28;20469;-73
2021/12/26 00:10:54;;;;;;;21.47;11.73;;;;;;;;;;5094618;28;20883;-74
2021/12/26 00:13:21;;;;;;;19.83;12.43;;;;;;;;;;5095963;28;20432;-73
2021/12/26 00:15:47;;;;;;;22.50;13.40;;;;;;;;;;5095886;28;20413;-71
2021/12/26 00:18:13;;;;;;;22.10;11.20;;;;;;;;;;5095863;28;20830;-72
2021/12/26 00:20:40;;;;;;;18.70;10.93;;;;;;;;;;5094544;28;20850;-72
2021/12/26 00:23:07;;;;;;;16.97;10.20;;;;;;;;;;5094478;28;20401;-73
2021/12/26 00:25:33;;;;;;;19.70;11.07;;;;;;;;;;5095531;28;20504;-70
2021/12/26 00:28:00;;;;;;;18.83;9.83;;;;;;;;;;5095657;28;20454;-72
2021/12/26 00:30:26;;;;;;;22.90;11.10;;;;;;;;;;5094166;28;20502;-73
2021/12/26 00:32:52;;;;;;;19.77;10.90;;;;;;;;;;5095555;28;20444;-70
2021/12/26 00:35:20;;;;;;;18.73;10.80;;;;;;;;;;5095478;28;20410;-70
2021/12/26 00:37:47;;;;;;;17.07;10.10;;;;;;;;;;5095378;28;20520;-70
2021/12/26 00:40:14;;;;;;;16.70;9.53;;;;;;;;;;5095315;28;20499;-70
2021/12/26 00:42:41;;;;;;;15.90;10.17;;;;;;;;;;5095298;28;20396;-72
2021/12/26 00:45:07;;;;;;;21.37;11.43;;;;;;;;;;5095160;28;20415;-69
2021/12/26 00:47:34;;;;;;;18.57;9.57;;;;;;;;;;5094002;28;20418;-73
2021/12/26 00:50:00;;;;;;;19.10;10.80;;;;;;;;;;5095133;28;20452;-69
2021/12/26 00:52:26;;;;;;;17.50;9.70;;;;;;;;;;5095026;28;20440;-70
2021/12/26 00:54:52;;;;;;;18.67;11.70;;;;;;;;;;5094806;28;20400;-73
2021/12/26 00:57:19;;;;;;;18.70;10.60;;;;;;;;;;5094196;28;20501;-74
2021/12/26 00:59:45;;;;;;;17.03;9.90;;;;;;;;;;5095060;28;20405;-73
2021/12/26 01:02:11;;;;;;;18.10;9.70;;;;;;;;;;5094762;28;20443;-73
2021/12/26 01:04:39;;;;;;;18.43;9.63;;;;;;;;;;5093555;28;20421;-73
2021/12/26 01:07:11;;;;;;;16.73;9.43;;;;;;;;;;5094916;28;20467;-72
2021/12/26 01:09:42;;;;;;;15.03;8.67;;;;;;;;;;5094761;28;20519;-74
2021/12/26 01:12:13;;;;;;;19.67;10.73;;;;;;;;;;5094897;28;20404;-73
2021/12/26 01:14:47;;;;;;;16.73;9.50;;;;;;;;;;5093457;28;20924;-74
2021/12/26 01:17:16;;;;;;;20.90;11.30;;;;;;;;;;5094793;28;20400;-74
2021/12/26 01:19:49;;;;;;;19.93;8.90;;;;;;;;;;5094693;28;20493;-71
2021/12/26 01:22:16;;;;;;;19.53;9.17;;;;;;;;;;5093287;28;20409;-73
2021/12/26 01:24:43;;;;;;;14.87;9.60;;;;;;;;;;5094414;28;20924;-69
2021/12/26 01:27:09;;;;;;;16.30;9.63;;;;;;;;;;5094574;28;20495;-71
2021/12/26 01:29:36;;;;;;;14.90;8.20;;;;;;;;;;5094355;28;20447;-71
2021/12/26 01:32:03;;;;;;;16.47;9.60;;;;;;;;;;5094369;28;20431;-70
2021/12/26 01:34:31;;;;;;;16.97;8.90;;;;;;;;;;5094324;28;20409;-71
2021/12/26 01:36:57;;;;;;;14.60;8.70;;;;;;;;;;5093089;28;20412;-69
2021/12/26 01:39:24;;;;;;;14.20;8.60;;;;;;;;;;5094157;28;20462;-70
2021/12/26 01:41:50;;;;;;;13.80;9.07;;;;;;;;;;5094175;28;20756;-70
2021/12/26 01:44:17;;;;;;;16.50;8.77;;;;;;;;;;5092884;28;20440;-70
2021/12/26 01:46:44;;;;;;;14.03;8.93;;;;;;;;;;5094111;28;20446;-72
2021/12/26 01:49:10;;;;;;;16.53;8.40;;;;;;;;;;5094042;28;20476;-70
2021/12/26 01:51:36;;;;;;;15.77;8.63;;;;;;;;;;5093992;28;20507;-71
2021/12/26 01:54:08;;;;;;;15.83;8.70;;;;;;;;;;5093871;28;20908;-70
2021/12/26 01:56:34;;;;;;;16.13;8.60;;;;;;;;;;5094080;28;20949;-72
2021/12/26 01:59:01;;;;;;;14.80;9.20;;;;;;;;;;5092453;28;20459;-71
2021/12/26 02:01:27;;;;;;;15.90;8.70;;;;;;;;;;5093862;28;20474;-73
2021/12/26 02:03:54;;;;;;;13.17;8.03;;;;;;;;;;5093788;28;20774;-75
2021/12/26 02:06:21;;;;;;;12.63;7.73;;;;;;;;;;5093530;28;20409;-73
2021/12/26 02:08:47;;;;;;;15.07;8.33;;;;;;;;;;5092524;28;20429;-72
2021/12/26 02:11:13;;;;;;;13.20;7.93;;;;;;;;;;5093724;28;20472;-73
2021/12/26 02:13:39;;;;;;;11.70;7.97;;;;;;;;;;5093736;28;20432;-69
2021/12/26 02:16:08;;;;;;;10.33;7.20;;;;;;;;;;5093604;28;20405;-70
2021/12/26 02:18:35;;;;;;;12.70;7.70;;;;;;;;;;5093648;28;20401;-69
2021/12/26 02:28:38;;;;;;;12.80;7.93;;;;;;;;;;5093491;28;20433;-71
2021/12/26 02:31:05;;;;;;;10.93;7.13;;;;;;;;;;5092096;28;20481;-71
2021/12/26 02:33:31;;;;;;;11.07;7.57;;;;;;;;;;5093321;28;20415;-70
2021/12/26 02:35:57;;;;;;;12.50;7.43;;;;;;;;;;5093441;28;20408;-71
2021/12/26 02:38:23;;;;;;;12.47;7.60;;;;;;;;;;5093264;28;20482;-71
2021/12/26 02:40:51;;;;;;;13.07;7.43;;;;;;;;;;5093296;28;20777;-71
2021/12/26 02:43:18;;;;;;;10.23;6.97;;;;;;;;;;5093289;28;20437;-70
2021/12/26 02:45:44;;;;;;;11.50;7.93;;;;;;;;;;5093214;28;20413;-73
2021/12/26 02:48:11;;;;;;;13.13;7.37;;;;;;;;;;5091948;28;20408;-73
2021/12/26 02:50:38;;;;;;;14.13;7.40;;;;;;;;;;5093140;28;21018;-74
2021/12/26 02:53:07;;;;;;;13.20;7.10;;;;;;;;;;5093073;28;20424;-73
2021/12/26 02:55:34;;;;;;;14.60;8.03;;;;;;;;;;5093139;28;20417;-73
2021/12/26 02:58:01;;;;;;;11.47;7.27;;;;;;;;;;5093041;28;20491;-74
2021/12/26 03:00:29;;;;;;;11.37;7.33;;;;;;;;;;5093112;28;20401;-74
2021/12/26 03:02:56;;;;;;;13.47;7.30;;;;;;;;;;5091767;28;20417;-73
2021/12/26 03:05:24;;;;;;;11.80;7.53;;;;;;;;;;5093059;28;20430;-74
2021/12/26 03:07:50;;;;;;;13.07;8.00;;;;;;;;;;5093017;28;20794;-73
2021/12/26 03:10:22;;;;;;;12.60;7.50;;;;;;;;;;5092943;28;20624;-73
2021/12/26 03:12:54;;;;;;;11.73;8.03;;;;;;;;;;5091864;28;20412;-71
2021/12/26 03:15:20;;;;;;;13.80;7.60;;;;;;;;;;5091775;28;20802;-74
2021/12/26 03:17:46;;;;;;;19.43;7.80;;;;;;;;;;5093150;28;20404;-73
2021/12/26 03:20:14;;;;;;;13.77;8.13;;;;;;;;;;5094899;28;20757;-72
2021/12/26 03:22:41;;;;;;;11.53;7.63;;;;;;;;;;5095534;28;20885;-71
2021/12/26 03:25:11;;;;;;;14.03;7.87;;;;;;;;;;5095602;28;20603;-74
2021/12/26 03:27:37;;;;;;;12.57;7.43;;;;;;;;;;5096786;28;20733;-71
2021/12/26 03:30:06;;;;;;;13.73;8.77;;;;;;;;;;5096737;28;20472;-72
2021/12/26 03:32:32;;;;;;;14.57;8.80;;;;;;;;;;5096802;28;20437;-73
2021/12/26 03:34:58;;;;;;;11.67;7.10;;;;;;;;;;5096800;28;20468;-73
2021/12/26 03:37:24;;;;;;;13.20;7.30;;;;;;;;;;5095365;28;20435;-72
2021/12/26 03:39:50;;;;;;;13.80;8.47;;;;;;;;;;5095250;28;20412;-72
2021/12/26 03:42:22;;;;;;;14.33;8.37;;;;;;;;;;5095378;28;20515;-73
2021/12/26 03:44:49;;;;;;;12.47;7.83;;;;;;;;;;5095951;28;20439;-70
2021/12/26 03:47:15;;;;;;;15.30;8.87;;;;;;;;;;5095246;28;20408;-73
2021/12/26 03:49:42;;;;;;;12.10;7.90;;;;;;;;;;5095052;28;20462;-72
2021/12/26 03:52:08;;;;;;;12.90;8.40;;;;;;;;;;5096299;28;20477;-74
2021/12/26 03:54:34;;;;;;;12.10;7.83;;;;;;;;;;5096251;28;20399;-73
2021/12/26 03:57:00;;;;;;;12.27;7.73;;;;;;;;;;5095028;28;20891;-72
2021/12/26 03:59:27;;;;;;;13.37;8.00;;;;;;;;;;5094729;28;20472;-74
2021/12/26 04:01:54;;;;;;;12.30;7.30;;;;;;;;;;5096157;28;20411;-73
2021/12/26 04:04:20;;;;;;;15.23;8.97;;;;;;;;;;5095957;28;20398;-74
2021/12/26 04:06:46;;;;;;;14.80;8.30;;;;;;;;;;5096113;28;20401;-71
2021/12/26 04:09:12;;;;;;;14.67;8.70;;;;;;;;;;5094745;28;20789;-74
2021/12/26 04:11:41;;;;;;;15.17;8.37;;;;;;;;;;5094653;28;20477;-73
2021/12/26 04:14:08;;;;;;;14.53;8.00;;;;;;;;;;5096032;28;20401;-72
2021/12/26 04:16:34;;;;;;;15.93;9.30;;;;;;;;;;5094659;28;20433;-73
2021/12/26 04:19:00;;;;;;;18.73;10.07;;;;;;;;;;5095977;28;20496;-73
2021/12/26 04:21:26;;;;;;;16.60;8.90;;;;;;;;;;5094549;28;20415;-74
2021/12/26 04:23:52;;;;;;;14.47;9.20;;;;;;;;;;5095662;28;20468;-74
2021/12/26 04:26:19;;;;;;;11.87;8.30;;;;;;;;;;5095834;28;20888;-74
2021/12/26 04:28:45;;;;;;;14.63;9.27;;;;;;;;;;5095710;28;20534;-73
2021/12/26 04:31:11;;;;;;;16.17;9.20;;;;;;;;;;5095413;28;20988;-74
2021/12/26 04:33:37;;;;;;;15.03;9.23;;;;;;;;;;5095450;28;20950;-73
2021/12/26 04:36:03;;;;;;;15.30;8.80;;;;;;;;;;5095547;28;20404;-74
2021/12/26 04:38:29;;;;;;;16.60;9.63;;;;;;;;;;5095413;28;20417;-74
2021/12/26 04:40:55;;;;;;;16.13;8.67;;;;;;;;;;5095471;28;20412;-73
2021/12/26 04:43:22;;;;;;;14.97;9.13;;;;;;;;;;5093958;28;20922;-73
2021/12/26 04:45:48;;;;;;;17.93;9.17;;;;;;;;;;5095374;28;20408;-73
2021/12/26 04:48:15;;;;;;;16.70;9.07;;;;;;;;;;5095271;28;20412;-75
2021/12/26 04:50:42;;;;;;;18.57;9.83;;;;;;;;;;5095220;28;20469;-75
2021/12/26 04:53:08;;;;;;;15.83;9.60;;;;;;;;;;5095027;28;20400;-72
2021/12/26 04:55:34;;;;;;;15.80;9.40;;;;;;;;;;5095281;28;20446;-75
2021/12/26 04:58:00;;;;;;;14.33;9.00;;;;;;;;;;5093669;28;20468;-73
2021/12/26 05:00:28;;;;;;;17.60;10.27;;;;;;;;;;5094977;28;20424;-74
2021/12/26 05:02:55;;;;;;;17.23;9.20;;;;;;;;;;5094903;28;20417;-75
2021/12/26 05:05:21;;;;;;;16.40;10.03;;;;;;;;;;5094899;28;20950;-74
2021/12/26 05:07:48;;;;;;;18.00;10.00;;;;;;;;;;5094912;28;20431;-74
2021/12/26 05:10:15;;;;;;;16.67;9.43;;;;;;;;;;5094882;28;20571;-75
2021/12/26 05:12:41;;;;;;;19.70;10.77;;;;;;;;;;5094762;28;20396;-73
2021/12/26 05:15:09;;;;;;;16.80;9.00;;;;;;;;;;5094768;28;20401;-74
2021/12/26 05:17:35;;;;;;;16.50;10.70;;;;;;;;;;5094765;28;20487;-73
2021/12/26 05:20:01;;;;;;;17.80;9.73;;;;;;;;;;5094678;28;20405;-74
2021/12/26 05:22:27;;;;;;;16.57;9.40;;;;;;;;;;5093332;28;20413;-74
2021/12/26 05:24:53;;;;;;;18.60;10.50;;;;;;;;;;5094527;28;20417;-73
2021/12/26 05:27:19;;;;;;;16.13;9.90;;;;;;;;;;5093369;28;20504;-73
2021/12/26 05:29:45;;;;;;;17.53;11.30;;;;;;;;;;5094307;28;20468;-75
2021/12/26 05:32:11;;;;;;;18.07;10.60;;;;;;;;;;5094357;28;20403;-74
2021/12/26 05:34:37;;;;;;;16.03;9.53;;;;;;;;;;5094437;28;20455;-73
2021/12/26 05:37:03;;;;;;;17.30;10.30;;;;;;;;;;5094351;28;20404;-73
2021/12/26 05:39:29;;;;;;;16.90;9.27;;;;;;;;;;5092946;28;20862;-74
2021/12/26 05:41:55;;;;;;;17.40;9.77;;;;;;;;;;5093652;28;20395;-74
2021/12/26 05:44:21;;;;;;;17.97;10.83;;;;;;;;;;5094067;28;20430;-75
2021/12/26 05:46:47;;;;;;;16.33;10.03;;;;;;;;;;5094155;28;20857;-72
2021/12/26 05:49:13;;;;;;;17.53;9.50;;;;;;;;;;5094290;28;20404;-74
2021/12/26 05:51:40;;;;;;;18.33;10.03;;;;;;;;;;5092692;28;20847;-73
2021/12/26 05:54:06;;;;;;;16.27;9.77;;;;;;;;;;5092800;28;20458;-73
2021/12/26 05:56:32;;;;;;;15.80;8.80;;;;;;;;;;5092811;28;20421;-74
2021/12/26 05:58:58;;;;;;;14.80;8.90;;;;;;;;;;5093824;28;20470;-74
2021/12/26 06:01:24;;;;;;;12.73;7.73;;;;;;;;;;5093820;28;20404;-74
2021/12/26 06:03:50;;;;;;;18.20;9.70;;;;;;;;;;5092575;28;20418;-75
2021/12/26 06:06:16;;;;;;;17.00;10.70;;;;;;;;;;5093842;28;20411;-74
2021/12/26 06:08:42;;;;;;;16.70;9.40;;;;;;;;;;5093702;28;20765;-72
2021/12/26 06:11:08;;;;;;;16.10;9.27;;;;;;;;;;5092403;28;20883;-73
2021/12/26 06:13:34;;;;;;;16.00;9.97;;;;;;;;;;5093679;28;20392;-73
2021/12/26 06:16:01;;;;;;;13.10;8.63;;;;;;;;;;5093632;28;20418;-73
2021/12/26 06:18:27;;;;;;;16.33;9.23;;;;;;;;;;5093621;28;20435;-72
2021/12/26 06:20:53;;;;;;;15.07;9.47;;;;;;;;;;5092424;28;20419;-73
2021/12/26 06:23:19;;;;;;;15.70;8.70;;;;;;;;;;5092166;28;20446;-74
2021/12/26 06:25:45;;;;;;;15.40;9.00;;;;;;;;;;5092180;28;21004;-73
2021/12/26 06:28:11;;;;;;;16.30;9.00;;;;;;;;;;5093465;28;20404;-72
2021/12/26 06:30:38;;;;;;;17.00;10.00;;;;;;;;;;5092148;28;20485;-71
2021/12/26 06:33:04;;;;;;;14.43;8.67;;;;;;;;;;5093325;28;20392;-72
2021/12/26 06:35:30;;;;;;;14.17;9.40;;;;;;;;;;5093452;28;20398;-71
2021/12/26 06:37:56;;;;;;;16.03;9.70;;;;;;;;;;5093242;28;20935;-73
2021/12/26 06:40:22;;;;;;;17.63;10.00;;;;;;;;;;5093425;28;20417;-70
2021/12/26 06:42:50;;;;;;;17.60;10.00;;;;;;;;;;5093166;28;20402;-73
2021/12/26 06:45:18;;;;;;;18.57;10.03;;;;;;;;;;5093335;28;20445;-71
2021/12/26 06:47:49;;;;;;;16.20;9.63;;;;;;;;;;5091967;28;20817;-72
2021/12/26 06:50:16;;;;;;;16.30;10.17;;;;;;;;;;5093219;28;20472;-74
2021/12/26 06:52:42;;;;;;;18.03;10.20;;;;;;;;;;5093131;28;20401;-72
2021/12/26 06:55:09;;;;;;;16.57;9.30;;;;;;;;;;5096273;28;20414;-73
2021/12/26 06:57:35;;;;;;;20.50;10.80;;;;;;;;;;5097285;28;20459;-73
2021/12/26 07:00:03;;;;;;;16.93;10.67;;;;;;;;;;5096286;28;20420;-75
2021/12/26 07:02:29;;;;;;;17.13;9.97;;;;;;;;;;5095949;28;20507;-73
2021/12/26 07:04:55;;;;;;;19.10;11.17;;;;;;;;;;5097416;28;20422;-74
2021/12/26 07:07:21;;;;;;;16.33;11.00;;;;;;;;;;5097221;28;20414;-74
2021/12/26 07:09:47;;;;;;;18.10;9.90;;;;;;;;;;5095886;28;20459;-73
2021/12/26 07:12:13;;;;;;;17.97;10.40;;;;;;;;;;5097012;28;20490;-72
2021/12/26 07:14:40;;;;;;;15.93;9.40;;;;;;;;;;5095813;28;20462;-74
2021/12/26 07:17:06;;;;;;;19.60;10.00;;;;;;;;;;5097172;28;20909;-73
2021/12/26 07:19:32;;;;;;;17.17;10.87;;;;;;;;;;5095735;28;20404;-74
2021/12/26 07:21:58;;;;;;;18.23;10.10;;;;;;;;;;5096879;28;20421;-74
2021/12/26 07:24:24;;;;;;;16.83;10.37;;;;;;;;;;5095521;28;20465;-75
2021/12/26 07:26:50;;;;;;;20.10;9.80;;;;;;;;;;5096784;28;20448;-74
2021/12/26 07:29:16;;;;;;;17.03;9.83;;;;;;;;;;5095564;28;20440;-74
2021/12/26 07:31:42;;;;;;;19.70;11.00;;;;;;;;;;5096613;28;20471;-73
2021/12/26 07:34:08;;;;;;;19.03;11.20;;;;;;;;;;5096912;28;20399;-74
2021/12/26 07:36:34;;;;;;;20.20;11.17;;;;;;;;;;5096685;28;20415;-74
2021/12/26 07:39:00;;;;;;;21.90;12.50;;;;;;;;;;5095325;28;20427;-74
2021/12/26 07:41:26;;;;;;;19.90;11.00;;;;;;;;;;5095333;28;20425;-73
2021/12/26 07:43:52;;;;;;;18.40;11.03;;;;;;;;;;5096448;28;20864;-73
2021/12/26 07:46:18;;;;;;;18.23;10.37;;;;;;;;;;5096625;28;20420;-73
2021/12/26 07:48:45;;;;;;;19.17;11.07;;;;;;;;;;5096488;28;20408;-74
2021/12/26 07:51:11;;;;;;;18.67;10.90;;;;;;;;;;5096419;28;20476;-74
2021/12/26 07:53:37;;;;;;;21.90;12.10;;;;;;;;;;5096370;28;20417;-74
2021/12/26 07:56:03;;;;;;;20.93;11.50;;;;;;;;;;5096294;28;20419;-74
2021/12/26 07:58:29;;;;;;;17.43;11.43;;;;;;;;;;5096090;28;20458;-73
2021/12/26 08:00:55;;;;;;;23.23;11.97;;;;;;;;;;5096303;28;20518;-74
2021/12/26 08:03:21;;;;;;;21.93;12.13;;;;;;;;;;5094744;28;20764;-74
2021/12/26 08:05:48;;;;;;;21.53;11.80;;;;;;;;;;5095638;28;20409;-73
2021/12/26 08:08:14;;;;;;;19.80;11.30;;;;;;;;;;5095990;28;20426;-73
2021/12/26 08:10:40;;;;;;;22.87;12.77;;;;;;;;;;5096092;28;20817;-74
2021/12/26 08:13:06;;;;;;;23.40;12.17;;;;;;;;;;5095971;28;20403;-74
2021/12/26 08:15:32;;;;;;;20.63;12.30;;;;;;;;;;5094566;28;20449;-74
2021/12/26 08:17:58;;;;;;;18.63;11.50;;;;;;;;;;5095900;28;20488;-73
2021/12/26 08:20:24;;;;;;;19.87;11.30;;;;;;;;;;5095894;28;20416;-73
2021/12/26 08:22:50;;;;;;;21.00;11.20;;;;;;;;;;5095637;28;20398;-73
2021/12/26 08:25:17;;;;;;;20.83;11.67;;;;;;;;;;5095706;28;20439;-74
2021/12/26 08:27:43;;;;;;;20.80;11.90;;;;;;;;;;5095764;28;20477;-74
2021/12/26 08:30:10;;;;;;;16.43;10.20;;;;;;;;;;5095581;28;20458;-74
2021/12/26 08:32:37;;;;;;;23.10;11.87;;;;;;;;;;5095521;28;20400;-74
2021/12/26 08:35:05;;;;;;;20.90;12.50;;;;;;;;;;5095589;28;20401;-74
2021/12/26 08:37:32;;;;;;;23.50;12.93;;;;;;;;;;5094176;28;20416;-74
2021/12/26 08:39:58;;;;;;;20.00;11.50;;;;;;;;;;5095466;28;20408;-74
2021/12/26 08:42:24;;;;;;;24.23;12.80;;;;;;;;;;5093985;28;20817;-74
2021/12/26 08:44:52;;;;;;;23.83;12.70;;;;;;;;;;5095197;28;21001;-74
2021/12/26 08:47:18;;;;;;;21.20;11.57;;;;;;;;;;5095318;28;20412;-74
2021/12/26 08:49:44;;;;;;;20.43;11.23;;;;;;;;;;5094002;28;20499;-74
2021/12/26 08:52:10;;;;;;;21.37;11.80;;;;;;;;;;5095100;28;20899;-74
2021/12/26 08:54:37;;;;;;;23.47;13.33;;;;;;;;;;5095107;28;20449;-74
2021/12/26 08:57:03;;;;;;;23.37;12.33;;;;;;;;;;5095030;28;20817;-73
2021/12/26 08:59:30;;;;;;;22.47;12.23;;;;;;;;;;5095115;28;20472;-74
2021/12/26 09:01:57;;;;;;;23.17;12.37;;;;;;;;;;5095074;28;20436;-74
2021/12/26 09:04:23;;;;;;;24.23;12.50;;;;;;;;;;5093523;28;20887;-74
2021/12/26 09:06:49;;;;;;;21.27;12.20;;;;;;;;;;5093695;28;20412;-75
2021/12/26 09:09:15;;;;;;;20.60;11.47;;;;;;;;;;5094788;28;20775;-74
2021/12/26 09:11:41;;;;;;;22.80;12.57;;;;;;;;;;5094811;28;20474;-73
2021/12/26 09:14:07;;;;;;;24.57;13.50;;;;;;;;;;5094902;28;20881;-74
2021/12/26 09:16:34;;;;;;;20.17;11.90;;;;;;;;;;5093859;28;20406;-75
2021/12/26 09:19:04;;;;;;;19.50;11.63;;;;;;;;;;5093512;28;20495;-75
2021/12/26 09:21:30;;;;;;;21.27;11.20;;;;;;;;;;5093421;28;20427;-72
2021/12/26 09:23:56;;;;;;;23.10;11.80;;;;;;;;;;5094585;28;20408;-73
2021/12/26 09:26:22;;;;;;;19.20;11.13;;;;;;;;;;5094582;28;20428;-73
2021/12/26 09:28:48;;;;;;;17.23;10.37;;;;;;;;;;5094501;28;20511;-73
2021/12/26 09:31:14;;;;;;;14.97;9.33;;;;;;;;;;5094417;28;20520;-74
2021/12/26 09:33:40;;;;;;;15.07;8.97;;;;;;;;;;5094433;28;20406;-72
2021/12/26 09:36:06;;;;;;;16.10;9.10;;;;;;;;;;5094470;28;20741;-73
2021/12/26 09:38:33;;;;;;;13.90;8.63;;;;;;;;;;5094370;28;20454;-75
2021/12/26 09:40:59;;;;;;;13.50;8.83;;;;;;;;;;5093031;28;20404;-73
2021/12/26 09:43:25;;;;;;;13.13;8.83;;;;;;;;;;5094200;28;20411;-75
2021/12/26 09:45:52;;;;;;;13.73;7.97;;;;;;;;;;5092819;28;20740;-74
2021/12/26 09:48:18;;;;;;;12.43;8.30;;;;;;;;;;5094313;28;20419;-74
2021/12/26 09:50:44;;;;;;;13.37;8.40;;;;;;;;;;5094107;28;20474;-74
2021/12/26 09:53:10;;;;;;;11.07;7.53;;;;;;;;;;5094032;28;20404;-74
2021/12/26 09:55:36;;;;;;;12.27;8.40;;;;;;;;;;5094122;28;20434;-73
2021/12/26 09:58:02;;;;;;;11.30;7.60;;;;;;;;;;5093796;28;20451;-73
2021/12/26 10:00:28;;;;;;;11.33;7.43;;;;;;;;;;5092786;28;20422;-73
2021/12/26 10:03:12;;;;;;;12.00;7.27;;;;;;;;;;5092472;28;20419;-74
2021/12/26 10:05:57;;;;;;;10.73;7.50;;;;;;;;;;5093922;28;20890;-73
2021/12/26 10:08:24;;;;;;;11.70;7.73;;;;;;;;;;5092328;28;20428;-73
2021/12/26 10:11:11;;;;;;;8.93;6.80;;;;;;;;;;5092416;28;20463;-73
2021/12/26 10:13:47;;;;;;;12.20;7.90;;;;;;;;;;5093722;28;20810;-74
2021/12/26 10:16:14;;;;;;;10.80;7.60;;;;;;;;;;5093677;28;20398;-74
2021/12/26 10:18:41;;;;;;;13.07;8.57;;;;;;;;;;5092389;28;20510;-74
2021/12/26 10:21:23;;;;;;;10.47;7.13;;;;;;;;;;5093681;28;20404;-74
2021/12/26 10:23:50;;;;;;;15.20;8.97;;;;;;;;;;5092185;28;20412;-72
2021/12/26 10:26:24;;;;;;;17.90;10.57;;;;;;;;;;5092342;28;20465;-74
2021/12/26 10:29:19;;;;;;;17.07;10.23;;;;;;;;;;5093371;28;20399;-73
2021/12/26 10:31:48;;;;;;;13.60;9.10;;;;;;;;;;5075939;28;20568;-73
2021/12/26 10:34:15;;;;;;;18.23;9.50;;;;;;;;;;5093526;28;20461;-74
2021/12/26 10:36:44;;;;;;;16.00;9.43;;;;;;;;;;5093324;28;20469;-71
2021/12/26 10:39:15;;;;;;;15.77;9.70;;;;;;;;;;5093292;28;20432;-74
2021/12/26 10:41:51;;;;;;;19.60;12.60;;;;;;;;;;5093349;28;20440;-74
2021/12/26 10:44:20;;;;;;;19.30;12.10;;;;;;;;;;5092080;28;20407;-74
2021/12/26 10:46:47;;;;;;;18.47;12.03;;;;;;;;;;5093302;28;20756;-73
2021/12/26 10:49:24;;;;;;;22.63;12.80;;;;;;;;;;5093266;28;20431;-74
2021/12/26 10:51:50;;;;;;;14.03;9.00;;;;;;;;;;5093167;28;20462;-73
2021/12/26 10:54:18;;;;;;;19.27;12.03;;;;;;;;;;5092043;28;20404;-74
2021/12/26 10:57:01;;;;;;;16.90;11.50;;;;;;;;;;5093081;28;20430;-73
2021/12/26 10:59:27;;;;;;;15.67;10.20;;;;;;;;;;5092974;28;20443;-73
2021/12/26 11:01:56;;;;;;;18.20;10.60;;;;;;;;;;5093021;28;20403;-73
2021/12/26 11:04:22;;;;;;;14.17;9.37;;;;;;;;;;5093103;28;20899;-74
2021/12/26 11:06:58;;;;;;;14.60;9.37;;;;;;;;;;5093139;28;20411;-73
2021/12/26 11:09:24;;;;;;;12.63;8.77;;;;;;;;;;5093001;28;20494;-73
2021/12/26 11:11:59;;;;;;;17.60;10.97;;;;;;;;;;5091729;28;20467;-74
2021/12/26 11:14:25;;;;;;;17.80;11.67;;;;;;;;;;5092959;28;20399;-73
2021/12/26 11:16:52;;;;;;;23.17;11.30;;;;;;;;;;5092911;28;20415;-72
2021/12/26 11:19:38;;;;;;;16.27;9.43;;;;;;;;;;5093048;28;20404;-74
2021/12/26 11:22:04;;;;;;;14.53;9.77;;;;;;;;;;5093009;28;20391;-73
2021/12/26 11:24:30;;;;;;;13.40;9.20;;;;;;;;;;5092813;28;20392;-74
2021/12/26 11:26:56;;;;;;;13.63;8.70;;;;;;;;;;5092898;28;20431;-73
2021/12/26 11:29:22;;;;;;;10.90;8.10;;;;;;;;;;5091619;28;20410;-74
2021/12/26 11:31:54;;;;;;;13.37;10.57;;;;;;;;;;5092672;28;20820;-74
2021/12/26 11:34:20;;;;;;;11.53;8.03;;;;;;;;;;5092924;28;20491;-74
2021/12/26 11:36:49;;;;;;;13.03;8.70;;;;;;;;;;5092687;28;20437;-73
2021/12/26 11:39:15;;;;;;;11.00;8.03;;;;;;;;;;5092799;28;20503;-74
2021/12/26 11:42:00;;;;;;;9.93;7.07;;;;;;;;;;5096279;28;20400;-74
2021/12/26 11:44:38;;;;;;;15.13;9.30;;;;;;;;;;5095223;28;20450;-74
2021/12/26 11:47:17;;;;;;;16.20;11.17;;;;;;;;;;5096594;28;20403;-74
2021/12/26 11:50:10;;;;;;;16.63;11.40;;;;;;;;;;5096389;28;20478;-71
2021/12/26 11:52:55;;;;;;;15.60;10.40;;;;;;;;;;5096393;28;20387;-73
2021/12/26 11:55:23;;;;;;;17.00;11.07;;;;;;;;;;5096355;28;20406;-72
2021/12/26 11:57:56;;;;;;;16.20;10.83;;;;;;;;;;5096193;28;20451;-72
2021/12/26 12:00:37;;;;;;;17.13;10.20;;;;;;;;;;5096212;28;20431;-74
2021/12/26 12:03:16;;;;;;;15.70;10.10;;;;;;;;;;5096128;28;20448;-72
2021/12/26 12:05:43;;;;;;;16.53;11.40;;;;;;;;;;5096080;28;20498;-72
2021/12/26 12:08:16;;;;;;;14.87;9.30;;;;;;;;;;5095976;28;20423;-73
2021/12/26 12:10:55;;;;;;;12.90;9.00;;;;;;;;;;5094585;28;20475;-73
2021/12/26 12:13:27;;;;;;;10.73;8.13;;;;;;;;;;5096090;28;20482;-73
2021/12/26 12:16:16;;;;;;;13.43;8.00;;;;;;;;;;5096030;28;20408;-73
2021/12/26 12:18:45;;;;;;;11.90;8.10;;;;;;;;;;5085352;28;20490;-74
2021/12/26 12:21:13;;;;;;;13.33;8.67;;;;;;;;;;5095777;28;20760;-73
2021/12/26 12:24:00;;;;;;;9.70;7.30;;;;;;;;;;5095678;28;20410;-71
2021/12/26 12:26:38;;;;;;;13.03;8.70;;;;;;;;;;5094445;28;20424;-72
2021/12/26 12:29:04;;;;;;;12.50;8.37;;;;;;;;;;5094414;28;20416;-73
2021/12/26 12:31:30;;;;;;;12.40;8.67;;;;;;;;;;5095481;28;20558;-73
2021/12/26 12:34:04;;;;;;;11.63;8.53;;;;;;;;;;5094332;28;20503;-73
2021/12/26 12:36:33;;;;;;;12.00;8.30;;;;;;;;;;5094243;28;20447;-72
2021/12/26 12:39:18;;;;;;;12.63;9.63;;;;;;;;;;5095387;28;20923;-73
2021/12/26 12:41:48;;;;;;;14.80;8.57;;;;;;;;;;5095368;28;20411;-73
2021/12/26 12:44:23;;;;;;;13.33;9.17;;;;;;;;;;5095331;28;20408;-74
2021/12/26 12:46:54;;;;;;;11.27;8.43;;;;;;;;;;5094087;28;20482;-73
2021/12/26 12:49:20;;;;;;;12.10;9.43;;;;;;;;;;5095365;28;20445;-72
2021/12/26 12:51:47;;;;;;;13.13;9.00;;;;;;;;;;5095099;28;20978;-73
2021/12/26 12:54:16;;;;;;;11.33;8.63;;;;;;;;;;5095203;28;20503;-73
2021/12/26 12:56:44;;;;;;;11.63;8.50;;;;;;;;;;5095157;28;20481;-73
2021/12/26 12:59:16;;;;;;;11.23;8.80;;;;;;;;;;5094932;28;20954;-74
2021/12/26 13:01:42;;;;;;;10.90;8.60;;;;;;;;;;5093766;28;20411;-73
2021/12/26 13:04:08;;;;;;;9.60;7.73;;;;;;;;;;5094903;28;20408;-73
2021/12/26 13:06:34;;;;;;;10.87;9.03;;;;;;;;;;5093663;28;20404;-74
2021/12/26 13:09:01;;;;;;;13.53;8.40;;;;;;;;;;5093578;28;20455;-74
2021/12/26 13:11:29;;;;;;;10.43;8.20;;;;;;;;;;5094701;28;20958;-73
2021/12/26 13:13:58;;;;;;;9.37;7.30;;;;;;;;;;5094837;28;20396;-73
2021/12/26 13:16:31;;;;;;;10.73;8.40;;;;;;;;;;5094832;28;20423;-74
2021/12/26 13:19:07;;;;;;;9.57;7.60;;;;;;;;;;5094746;28;20491;-73
2021/12/26 13:21:34;;;;;;;9.90;8.00;;;;;;;;;;5093289;28;20420;-72
2021/12/26 13:24:00;;;;;;;9.90;7.50;;;;;;;;;;5094502;28;20407;-74
2021/12/26 13:26:26;;;;;;;10.30;8.30;;;;;;;;;;5094618;28;20483;-73
2021/12/26 13:28:52;;;;;;;10.03;7.70;;;;;;;;;;5094563;28;20396;-74
2021/12/26 13:31:22;;;;;;;10.27;6.97;;;;;;;;;;5094356;28;20490;-74
2021/12/26 13:33:52;;;;;;;9.47;7.77;;;;;;;;;;5094569;28;20408;-74
2021/12/26 13:36:23;;;;;;;9.27;7.43;;;;;;;;;;5094401;28;20429;-74
2021/12/26 13:38:51;;;;;;;11.07;8.10;;;;;;;;;;5094244;28;20510;-74
2021/12/26 13:41:18;;;;;;;9.77;7.30;;;;;;;;;;5092994;28;20505;-74
2021/12/26 13:43:45;;;;;;;9.73;7.63;;;;;;;;;;5094073;28;20396;-73
2021/12/26 13:46:14;;;;;;;11.30;8.00;;;;;;;;;;5094312;28;20541;-73
2021/12/26 13:48:45;;;;;;;8.63;7.63;;;;;;;;;;5094255;28;20424;-73
2021/12/26 13:51:17;;;;;;;9.13;7.83;;;;;;;;;;5093939;28;20574;-74
2021/12/26 13:53:43;;;;;;;9.77;7.37;;;;;;;;;;5094072;28;20453;-73
2021/12/26 13:56:09;;;;;;;11.07;8.07;;;;;;;;;;5094102;28;20402;-74
2021/12/26 13:58:39;;;;;;;8.60;7.07;;;;;;;;;;5093679;28;20471;-73
2021/12/26 14:01:06;;;;;;;9.07;8.17;;;;;;;;;;5093853;28;20481;-73
2021/12/26 14:03:32;;;;;;;9.60;7.60;;;;;;;;;;5093310;28;20399;-74
2021/12/26 14:05:58;;;;;;;9.17;7.13;;;;;;;;;;5093850;28;20395;-73
2021/12/26 14:08:30;;;;;;;10.13;7.50;;;;;;;;;;5093846;28;20932;-73
2021/12/26 14:10:56;;;;;;;11.20;7.40;;;;;;;;;;5093743;28;20985;-72
2021/12/26 14:13:22;;;;;;;9.03;7.93;;;;;;;;;;5093729;28;20406;-73
2021/12/26 14:15:55;;;;;;;11.80;8.30;;;;;;;;;;5093646;28;20495;-72
2021/12/26 14:18:24;;;;;;;12.57;7.83;;;;;;;;;;5092443;28;20759;-72
2021/12/26 14:20:50;;;;;;;8.93;7.87;;;;;;;;;;5093570;28;20445;-73
2021/12/26 14:23:16;;;;;;;10.67;8.00;;;;;;;;;;5093438;28;20400;-72
2021/12/26 14:25:42;;;;;;;12.40;7.90;;;;;;;;;;5093515;28;20416;-75
2021/12/26 14:28:12;;;;;;;9.53;7.10;;;;;;;;;;5093551;28;20409;-74
2021/12/26 14:30:38;;;;;;;9.83;7.07;;;;;;;;;;5093299;28;20512;-75
2021/12/26 14:33:04;;;;;;;9.03;7.70;;;;;;;;;;5093333;28;20526;-74
2021/12/26 14:35:31;;;;;;;17.10;8.47;;;;;;;;;;5092099;28;20403;-74
2021/12/26 14:38:10;;;;;;;12.43;8.13;;;;;;;;;;5093349;28;20434;-74